MUC | München Airways

Zeit Nach Flug-Nr.
Alle Abflüge →
EDDM 060820Z 23012KT 9999 FEW035 17/11 Q1005 NOSIG

 LIVE MAP


DEPARTURES | ARRIVALS

Flug-Nr. ETD From To Status Gate (EDDM) In Progress
MUC109 21:15 Berlin-Tegel Munich LANDED (MUC313) 107
SUN784 23:30 Olbia Costa Smeralda Palma De Mallorca LANDED (MUC091) 0
MAC8112 06:40 Perth Bandaranaike Colombo LANDED (MUC141) 901

AKTUELLES

Worldwide Destinations

We fly both, continentale- and intercontinental destinations

Fleet

München Airways is provided with the most modern fleet

Real ATC

We fly on the Online-Network "IVAO". With standard phrases of the DFS we fly easily by the most different airspaces

The Social

In our Airline the fun as well as the respect is very valuable between the pilots

Real Flight Routes

All routes are checked by us and are updated daily. Summer as well as winter flight schedules bring you a lot of variety

Teamspeak 3

With the use of the Teamspeak 3 server the pilots can fly together or exchange themselves mutually

 LIVEBOARD

 FUTURE EVENTS

EventDate

 NOTAMS

NOTAMDate

*/